Terminal Aerodrome Forecast
Issued by NWS Charleston, WV

Home | Current Version | Previous Version | Text Only | Print | Product List | Glossary On
Versions: 1 2 3 4 5 6 7 8 9 10 11 12 13 14 15 16 17 18 19 20 21 22 23 24 25 26 27 28 29 30 31 32 33 34 35 36 37 38 39 40 41 42 43 44 45 46 47
000
FTUS41 KRLX 240837 AAA
TAFHTS
TAF AMD
KHTS 240837Z 2409/2506 19003KT 6SM BR VCSH BKN100
      TEMPO 2409/2411 3SM BR SCT030
     FM241200 20004KT P6SM BKN050
     FM241600 21009G15KT P6SM SCT150
     FM241900 24009G25KT 6SM TSRA BKN035CB
     FM250100 23005KT 6SM -SHRA BKN035=

USA.gov is the U.S. government's official web portal to all federal, state and local government web resources and services.